createdAt,value
2023-03-06T00:02:24.513Z,5.90
2023-03-06T00:04:51.671Z,5.80
2023-03-06T00:07:18.533Z,5.80
2023-03-06T00:09:45.400Z,5.80
2023-03-06T00:12:12.576Z,5.80
2023-03-06T00:14:39.510Z,5.80
2023-03-06T00:17:06.386Z,5.80
2023-03-06T00:19:33.259Z,5.80
2023-03-06T00:22:00.127Z,5.80
2023-03-06T00:24:27.006Z,5.80
2023-03-06T00:26:53.878Z,5.80
2023-03-06T00:29:20.749Z,5.80
2023-03-06T00:31:48.210Z,5.80
2023-03-06T00:34:15.513Z,5.80
2023-03-06T00:36:42.793Z,5.80
2023-03-06T00:39:09.795Z,5.80
2023-03-06T00:41:36.706Z,5.80
2023-03-06T00:44:03.595Z,5.80
2023-03-06T00:46:30.474Z,5.80
2023-03-06T00:48:57.396Z,5.80
2023-03-06T00:51:24.337Z,5.80
2023-03-06T00:53:51.272Z,5.80
2023-03-06T00:56:19.944Z,5.80
2023-03-06T00:58:47.049Z,5.80
2023-03-06T01:01:14.083Z,5.90
2023-03-06T01:03:41.130Z,5.90
2023-03-06T01:06:08.187Z,5.90
2023-03-06T01:08:35.121Z,5.90
2023-03-06T01:11:02.004Z,5.80
2023-03-06T01:13:28.959Z,5.80
2023-03-06T01:15:55.846Z,5.70
2023-03-06T01:18:22.755Z,5.70
2023-03-06T01:20:49.651Z,5.70
2023-03-06T01:23:16.542Z,5.60
2023-03-06T01:25:43.592Z,5.60
2023-03-06T01:28:10.462Z,5.60
2023-03-06T01:30:37.612Z,5.60
2023-03-06T01:33:04.543Z,5.60
2023-03-06T01:35:31.486Z,5.60
2023-03-06T01:37:58.378Z,5.60
2023-03-06T01:40:25.325Z,5.60
2023-03-06T01:42:52.177Z,5.60
2023-03-06T01:45:19.073Z,5.60
2023-03-06T01:47:46.025Z,5.60
2023-03-06T01:50:13.249Z,5.60
2023-03-06T01:52:44.229Z,5.60
2023-03-06T01:55:13.851Z,5.60
2023-03-06T01:57:48.367Z,5.60
2023-03-06T02:00:16.525Z,5.50
2023-03-06T02:02:45.527Z,5.50
2023-03-06T02:05:12.386Z,5.50
2023-03-06T02:07:40.216Z,5.60
2023-03-06T02:10:07.303Z,5.60
2023-03-06T02:12:34.333Z,5.50
2023-03-06T02:15:01.746Z,5.50
2023-03-06T02:17:29.481Z,5.50
2023-03-06T02:20:01.771Z,5.50
2023-03-06T02:22:41.766Z,5.50
2023-03-06T02:25:14.211Z,5.60
2023-03-06T02:27:41.326Z,5.60
2023-03-06T02:30:08.999Z,5.60
2023-03-06T02:32:36.067Z,5.60
2023-03-06T02:35:04.135Z,5.50
2023-03-06T02:37:31.057Z,5.50
2023-03-06T02:40:00.995Z,5.60
2023-03-06T02:42:31.404Z,5.50
2023-03-06T02:44:59.411Z,5.50
2023-03-06T02:47:26.529Z,5.50
2023-03-06T02:49:53.590Z,5.50
2023-03-06T02:52:20.452Z,5.50
2023-03-06T02:54:47.385Z,5.50
2023-03-06T02:57:14.321Z,5.40
2023-03-06T02:59:41.141Z,5.40
2023-03-06T03:02:08.037Z,5.40
2023-03-06T03:04:35.050Z,5.40
2023-03-06T03:07:02.086Z,5.40
2023-03-06T03:09:29.062Z,5.40
2023-03-06T03:11:56.005Z,5.40
2023-03-06T03:14:24.745Z,5.40
2023-03-06T03:16:52.646Z,5.40
2023-03-06T03:19:19.526Z,5.30
2023-03-06T03:21:46.422Z,5.30
2023-03-06T03:24:13.438Z,5.30
2023-03-06T03:26:40.329Z,5.30
2023-03-06T03:29:07.373Z,5.20
2023-03-06T03:31:34.546Z,5.20
2023-03-06T03:34:01.716Z,5.20
2023-03-06T03:36:28.992Z,5.20
2023-03-06T03:38:56.398Z,5.10
2023-03-06T03:41:23.820Z,5.10
2023-03-06T03:43:50.784Z,5.10
2023-03-06T03:46:17.908Z,5.00
2023-03-06T03:48:44.956Z,5.00
2023-03-06T03:51:13.155Z,5.00
2023-03-06T03:53:40.186Z,4.90
2023-03-06T03:56:07.128Z,4.90
2023-03-06T03:58:34.079Z,4.90
2023-03-06T04:01:01.228Z,4.90
2023-03-06T04:03:28.177Z,4.80
2023-03-06T04:05:55.683Z,4.80
2023-03-06T04:08:22.933Z,4.70
2023-03-06T04:10:50.622Z,4.70
2023-03-06T04:13:19.651Z,4.60
2023-03-06T04:15:47.301Z,4.60
2023-03-06T04:18:16.458Z,4.50
2023-03-06T04:20:44.681Z,4.50
2023-03-06T04:23:12.121Z,4.50
2023-03-06T04:25:38.991Z,4.40
2023-03-06T04:28:06.229Z,4.40
2023-03-06T04:30:33.398Z,4.40
2023-03-06T04:33:00.735Z,4.30
2023-03-06T04:35:27.661Z,4.30
2023-03-06T04:37:54.956Z,4.30
2023-03-06T04:40:23.821Z,4.20
2023-03-06T04:42:50.964Z,4.20
2023-03-06T04:45:17.800Z,4.20
2023-03-06T04:47:44.832Z,4.10
2023-03-06T04:50:12.033Z,4.10
2023-03-06T04:52:40.657Z,4.10
2023-03-06T04:55:09.096Z,4.10
2023-03-06T04:57:39.683Z,4.10
2023-03-06T05:00:12.365Z,4.10
2023-03-06T05:02:39.230Z,4.10
2023-03-06T05:05:06.249Z,4.10
2023-03-06T05:07:33.138Z,4.20
2023-03-06T05:10:00.742Z,4.20
2023-03-06T05:12:27.630Z,4.20
2023-03-06T05:14:54.618Z,4.30
2023-03-06T05:17:21.682Z,4.30
2023-03-06T05:19:48.541Z,4.30
2023-03-06T05:22:15.433Z,4.30
2023-03-06T05:24:42.248Z,4.30
2023-03-06T05:27:09.268Z,4.30
2023-03-06T05:29:36.306Z,4.30
2023-03-06T05:32:03.248Z,4.30
2023-03-06T05:34:30.194Z,4.30
2023-03-06T05:36:57.054Z,4.30
2023-03-06T05:39:23.989Z,4.30
2023-03-06T05:41:51.135Z,4.30
2023-03-06T05:44:18.081Z,4.30
2023-03-06T05:46:44.987Z,4.30
2023-03-06T05:49:11.869Z,4.30
2023-03-06T05:51:38.754Z,4.30
2023-03-06T05:54:05.629Z,4.30
2023-03-06T05:56:32.527Z,4.30
2023-03-06T05:58:59.474Z,4.30
2023-03-06T06:01:28.569Z,4.40
2023-03-06T06:03:55.676Z,4.40
2023-03-06T06:06:22.628Z,4.30
2023-03-06T06:08:49.664Z,4.40
2023-03-06T06:11:18.450Z,4.30
2023-03-06T06:13:45.361Z,4.30
2023-03-06T06:16:13.626Z,4.30
2023-03-06T06:18:41.484Z,4.30
2023-03-06T06:21:09.335Z,4.30
2023-03-06T06:23:36.485Z,4.30
2023-03-06T06:26:05.037Z,4.30
2023-03-06T06:28:32.232Z,4.30
2023-03-06T06:30:59.155Z,4.30
2023-03-06T06:33:26.285Z,4.30
2023-03-06T06:35:53.398Z,4.30
2023-03-06T06:38:20.388Z,4.30
2023-03-06T06:41:18.087Z,4.30
2023-03-06T06:43:34.260Z,4.30
2023-03-06T06:46:21.097Z,4.30
2023-03-06T06:48:49.766Z,4.30
2023-03-06T06:51:17.388Z,4.30
2023-03-06T06:53:45.177Z,4.30
2023-03-06T06:56:12.193Z,4.30
2023-03-06T06:58:39.178Z,4.30
2023-03-06T07:01:10.257Z,4.40
2023-03-06T07:03:37.577Z,4.30
2023-03-06T07:06:05.224Z,4.30
2023-03-06T07:08:32.109Z,4.30
2023-03-06T07:10:59.187Z,4.40
2023-03-06T07:13:26.158Z,4.40
2023-03-06T07:15:53.190Z,4.40
2023-03-06T07:18:20.145Z,4.40
2023-03-06T07:20:47.086Z,4.40
2023-03-06T07:23:14.159Z,4.40
2023-03-06T07:25:41.156Z,4.50
2023-03-06T07:28:08.070Z,4.50
2023-03-06T07:30:35.059Z,4.50
2023-03-06T07:33:02.097Z,4.60
2023-03-06T07:35:29.036Z,4.60
2023-03-06T07:37:56.106Z,4.60
2023-03-06T07:40:23.563Z,4.70
2023-03-06T07:42:52.950Z,4.70
2023-03-06T07:45:19.829Z,4.70
2023-03-06T07:47:46.934Z,4.80
2023-03-06T07:50:13.877Z,4.90
2023-03-06T07:52:40.854Z,4.90
2023-03-06T07:55:08.039Z,4.90
2023-03-06T07:57:34.934Z,4.90
2023-03-06T08:00:01.942Z,5.00
2023-03-06T08:02:28.837Z,5.00
2023-03-06T08:04:55.958Z,5.10
2023-03-06T08:07:23.213Z,5.10
2023-03-06T08:09:50.093Z,5.10
2023-03-06T08:12:17.092Z,5.20
2023-03-06T08:14:44.041Z,5.10
2023-03-06T08:17:10.889Z,5.10
2023-03-06T08:19:37.820Z,5.20
2023-03-06T08:22:08.831Z,5.20
2023-03-06T08:24:35.987Z,5.20
2023-03-06T08:27:03.182Z,5.30
2023-03-06T08:29:31.563Z,5.30
2023-03-06T08:31:59.312Z,5.30
2023-03-06T08:34:26.431Z,5.30
2023-03-06T08:36:53.406Z,5.30
2023-03-06T08:39:21.251Z,5.40
2023-03-06T08:41:48.313Z,5.40
2023-03-06T08:44:15.252Z,5.40
2023-03-06T08:46:42.329Z,5.40
2023-03-06T08:49:09.968Z,5.40
2023-03-06T08:51:36.912Z,5.50
2023-03-06T08:54:04.072Z,5.40
2023-03-06T08:56:32.758Z,5.50
2023-03-06T08:59:00.906Z,5.50
2023-03-06T09:01:29.545Z,5.50
2023-03-06T09:03:57.975Z,5.50
2023-03-06T09:06:25.877Z,5.50
2023-03-06T09:08:53.313Z,5.50
2023-03-06T09:11:21.066Z,5.60
2023-03-06T09:13:48.087Z,5.60
2023-03-06T09:16:15.502Z,5.60
2023-03-06T09:18:42.507Z,5.60
2023-03-06T09:21:10.018Z,5.60
2023-03-06T09:23:39.671Z,5.60
2023-03-06T09:26:07.729Z,5.60
2023-03-06T09:28:39.311Z,5.60
2023-03-06T09:31:13.373Z,5.60
2023-03-06T09:33:40.680Z,5.70
2023-03-06T09:36:08.350Z,5.60
2023-03-06T09:38:35.371Z,5.70
2023-03-06T09:41:20.956Z,5.70
2023-03-06T09:43:49.046Z,5.60
2023-03-06T09:46:29.854Z,5.70
2023-03-06T09:48:57.090Z,5.70
2023-03-06T09:51:28.300Z,5.70
2023-03-06T09:54:02.789Z,5.80
2023-03-06T09:56:32.104Z,5.80
2023-03-06T09:59:19.272Z,5.90
2023-03-06T10:02:09.744Z,5.90
2023-03-06T10:04:42.001Z,5.90
2023-03-06T10:07:13.377Z,5.90
2023-03-06T10:09:58.704Z,6.00
2023-03-06T10:12:31.808Z,6.00
2023-03-06T10:14:58.748Z,6.00
2023-03-06T10:17:26.520Z,6.10
2023-03-06T10:19:53.394Z,6.10
2023-03-06T10:22:31.277Z,6.10
2023-03-06T10:25:19.893Z,6.10
2023-03-06T10:27:48.601Z,6.10
2023-03-06T10:30:26.539Z,6.10
2023-03-06T10:32:55.963Z,6.10
2023-03-06T10:35:25.809Z,6.20
2023-03-06T10:37:58.849Z,6.20
2023-03-06T10:40:31.146Z,6.20
2023-03-06T10:43:10.799Z,6.20
2023-03-06T10:45:51.954Z,6.20
2023-03-06T10:48:20.868Z,6.20
2023-03-06T10:50:48.163Z,6.30
2023-03-06T10:53:23.901Z,6.30
2023-03-06T10:55:52.845Z,6.30
2023-03-06T10:58:22.983Z,6.30
2023-03-06T11:01:11.659Z,6.40
2023-03-06T11:03:38.672Z,6.50
2023-03-06T11:06:13.382Z,6.60
2023-03-06T11:08:41.476Z,6.60
2023-03-06T11:11:11.308Z,6.70
2023-03-06T11:13:39.342Z,6.80
2023-03-06T11:16:10.058Z,6.90
2023-03-06T11:18:41.394Z,7.00
2023-03-06T11:21:28.327Z,7.10
2023-03-06T11:24:00.637Z,7.30
2023-03-06T11:26:30.682Z,7.30
2023-03-06T11:29:03.054Z,7.40
2023-03-06T11:31:34.204Z,7.50
2023-03-06T11:34:21.341Z,7.50
2023-03-06T11:36:53.842Z,7.60
2023-03-06T11:39:31.766Z,7.70
2023-03-06T11:42:05.579Z,7.80
2023-03-06T11:44:35.284Z,7.90
2023-03-06T11:47:05.299Z,7.90
2023-03-06T11:49:35.546Z,8.00
2023-03-06T11:52:10.279Z,8.10
2023-03-06T11:54:37.250Z,8.20
2023-03-06T11:57:12.549Z,8.20
2023-03-06T11:59:57.262Z,8.30
2023-03-06T12:02:44.212Z,8.40
2023-03-06T12:05:34.059Z,8.60
2023-03-06T12:08:04.046Z,8.70
2023-03-06T12:10:51.495Z,8.70
2023-03-06T12:16:13.790Z,8.70
2023-03-06T12:18:52.889Z,8.70
2023-03-06T12:21:49.069Z,8.70
2023-03-06T12:24:30.922Z,8.60
2023-03-06T12:27:10.203Z,8.60
2023-03-06T12:29:41.976Z,8.60
2023-03-06T12:32:21.895Z,8.60
2023-03-06T12:35:00.365Z,8.70
2023-03-06T12:37:42.715Z,8.70
2023-03-06T12:40:31.859Z,8.70
2023-03-06T12:43:18.747Z,8.80
2023-03-06T12:45:46.486Z,8.90
2023-03-06T12:48:24.664Z,9.00
2023-03-06T12:50:52.099Z,9.00
2023-03-06T12:53:29.579Z,9.10
2023-03-06T12:55:57.974Z,9.00
2023-03-06T12:58:30.467Z,9.00
2023-03-06T13:01:03.523Z,8.90
2023-03-06T13:03:49.268Z,8.80
2023-03-06T13:06:19.237Z,8.80
2023-03-06T13:08:51.075Z,8.90
2023-03-06T13:11:30.814Z,8.90
2023-03-06T13:13:57.753Z,8.90
2023-03-06T13:16:27.631Z,9.00
2023-03-06T13:18:58.110Z,9.00
2023-03-06T13:21:44.617Z,9.10
2023-03-06T13:24:17.626Z,9.10
2023-03-06T13:26:44.459Z,9.10
2023-03-06T13:29:30.206Z,9.10
2023-03-06T13:32:03.156Z,9.20
2023-03-06T13:34:36.204Z,9.30
2023-03-06T13:37:23.531Z,9.40
2023-03-06T13:39:59.702Z,9.40
2023-03-06T13:42:37.189Z,9.60
2023-03-06T13:45:22.759Z,9.80
2023-03-06T13:50:42.671Z,9.90
2023-03-06T13:53:09.609Z,10.00
2023-03-06T13:55:45.606Z,9.80
2023-03-06T13:58:12.619Z,9.80
2023-03-06T14:00:39.644Z,9.70
2023-03-06T14:03:18.714Z,9.70
2023-03-06T14:05:49.789Z,9.60
2023-03-06T14:08:17.088Z,9.50
2023-03-06T14:10:44.985Z,9.50
2023-03-06T14:13:32.195Z,9.50
2023-03-06T14:16:02.510Z,9.50
2023-03-06T14:18:32.502Z,9.40
2023-03-06T14:21:03.958Z,9.50
2023-03-06T14:23:32.490Z,9.40
2023-03-06T14:26:17.542Z,9.30
2023-03-06T14:28:46.024Z,9.30
2023-03-06T14:31:33.551Z,9.30
2023-03-06T14:34:15.716Z,9.30
2023-03-06T14:36:52.595Z,9.40
2023-03-06T14:39:24.317Z,9.70
2023-03-06T14:41:51.254Z,9.80
2023-03-06T14:44:19.863Z,9.90
2023-03-06T14:46:47.669Z,10.00
2023-03-06T14:49:15.648Z,10.10
2023-03-06T14:51:44.266Z,10.20
2023-03-06T14:54:22.676Z,10.10
2023-03-06T14:56:51.796Z,10.10
2023-03-06T14:59:21.784Z,10.00
2023-03-06T15:01:49.961Z,10.00
2023-03-06T15:04:20.076Z,10.00
2023-03-06T15:06:47.056Z,9.90
2023-03-06T15:09:16.256Z,10.00
2023-03-06T15:12:05.328Z,10.10
2023-03-06T15:14:34.647Z,10.10
2023-03-06T15:17:20.417Z,10.20
2023-03-06T15:19:48.679Z,10.20
2023-03-06T15:22:29.723Z,10.30
2023-03-06T15:25:15.249Z,10.40
2023-03-06T15:27:47.657Z,10.30
2023-03-06T15:30:28.831Z,10.30
2023-03-06T15:33:14.673Z,10.20
2023-03-06T15:35:51.299Z,10.20
2023-03-06T15:38:24.025Z,10.10
2023-03-06T15:40:55.000Z,10.00
2023-03-06T15:43:21.862Z,10.00
2023-03-06T15:45:48.845Z,9.80
2023-03-06T15:48:17.663Z,9.80
2023-03-06T15:50:44.774Z,9.80
2023-03-06T15:53:11.792Z,9.70
2023-03-06T15:55:38.803Z,9.70
2023-03-06T15:58:05.766Z,9.60
2023-03-06T16:00:34.559Z,9.60
2023-03-06T16:03:01.971Z,9.60
2023-03-06T16:05:29.523Z,9.60
2023-03-06T16:07:56.456Z,9.60
2023-03-06T16:10:24.675Z,9.50
2023-03-06T16:12:55.918Z,9.40
2023-03-06T16:15:25.503Z,9.40
2023-03-06T16:17:52.368Z,9.40
2023-03-06T16:20:20.617Z,9.40
2023-03-06T16:22:48.549Z,9.40
2023-03-06T16:25:17.194Z,9.40
2023-03-06T16:27:46.130Z,9.40
2023-03-06T16:30:20.147Z,9.40
2023-03-06T16:32:47.235Z,9.40
2023-03-06T16:35:14.566Z,9.30
2023-03-06T16:37:41.756Z,9.20
2023-03-06T16:40:22.522Z,9.20
2023-03-06T16:42:50.077Z,9.20
2023-03-06T16:45:18.338Z,9.20
2023-03-06T16:47:46.286Z,9.10
2023-03-06T16:50:19.093Z,9.00
2023-03-06T16:52:45.990Z,9.00
2023-03-06T16:55:12.920Z,9.00
2023-03-06T16:57:39.770Z,9.00
2023-03-06T17:00:07.121Z,8.90
2023-03-06T17:02:34.002Z,8.90
2023-03-06T17:05:01.169Z,8.90
2023-03-06T17:07:29.346Z,8.90
2023-03-06T17:09:56.306Z,8.80
2023-03-06T17:12:23.272Z,8.80
2023-03-06T17:14:50.224Z,8.90
2023-03-06T17:17:52.429Z,9.00
2023-03-06T17:20:19.412Z,9.00
2023-03-06T17:22:46.526Z,9.00
2023-03-06T17:25:13.521Z,9.00
2023-03-06T17:27:40.421Z,9.00
2023-03-06T17:30:07.605Z,8.90
2023-03-06T17:32:34.636Z,8.90
2023-03-06T17:35:01.801Z,8.80
2023-03-06T17:37:28.780Z,8.80
2023-03-06T17:39:55.763Z,8.90
2023-03-06T17:42:22.664Z,8.80
2023-03-06T17:44:49.600Z,8.80
2023-03-06T17:47:16.479Z,8.80
2023-03-06T17:49:43.429Z,8.90
2023-03-06T17:52:10.500Z,8.80
2023-03-06T17:54:37.476Z,8.70
2023-03-06T17:57:05.829Z,8.70
2023-03-06T17:59:34.503Z,8.70
2023-03-06T18:02:01.821Z,8.70
2023-03-06T18:04:29.242Z,8.70
2023-03-06T18:06:57.283Z,8.60
2023-03-06T18:09:24.278Z,8.60
2023-03-06T18:11:51.333Z,8.50
2023-03-06T18:14:18.242Z,8.50
2023-03-06T18:16:45.544Z,8.50
2023-03-06T18:20:00.534Z,8.40
2023-03-06T18:22:27.493Z,8.30
2023-03-06T18:24:54.364Z,8.30
2023-03-06T18:27:22.056Z,8.30
2023-03-06T18:29:48.952Z,8.30
2023-03-06T18:32:16.065Z,8.20
2023-03-06T18:34:43.964Z,8.20
2023-03-06T18:37:10.829Z,8.10
2023-03-06T18:39:37.741Z,8.00
2023-03-06T18:42:04.819Z,8.00
2023-03-06T18:44:31.707Z,7.90
2023-03-06T18:46:58.682Z,8.00
2023-03-06T18:49:25.623Z,7.90
2023-03-06T18:51:52.511Z,7.90
2023-03-06T18:54:19.431Z,7.90
2023-03-06T18:56:46.316Z,7.90
2023-03-06T18:59:17.533Z,7.90
2023-03-06T19:01:45.562Z,7.80
2023-03-06T19:04:12.697Z,7.80
2023-03-06T19:06:40.139Z,7.80
2023-03-06T19:09:07.193Z,7.70
2023-03-06T19:11:34.680Z,7.70
2023-03-06T19:14:01.873Z,7.70
2023-03-06T19:16:32.490Z,7.70
2023-03-06T19:18:59.540Z,7.70
2023-03-06T19:21:26.965Z,7.70
2023-03-06T19:23:54.133Z,7.70
2023-03-06T19:26:21.333Z,7.70
2023-03-06T19:28:48.512Z,7.70
2023-03-06T19:31:21.530Z,7.70
2023-03-06T19:33:49.320Z,7.70
2023-03-06T19:36:17.543Z,7.70
2023-03-06T19:38:44.712Z,7.70
2023-03-06T19:41:13.715Z,7.70
2023-03-06T19:43:41.787Z,7.60
2023-03-06T19:46:12.681Z,7.60
2023-03-06T19:48:40.143Z,7.60
2023-03-06T19:51:07.641Z,7.60
2023-03-06T19:53:38.969Z,7.60
2023-03-06T19:56:07.896Z,7.60
2023-03-06T19:58:35.096Z,7.60
2023-03-06T20:01:06.313Z,7.60
2023-03-06T20:03:33.409Z,7.60
2023-03-06T20:06:00.458Z,7.50
2023-03-06T20:08:27.305Z,7.50
2023-03-06T20:10:54.137Z,7.60
2023-03-06T20:13:21.300Z,7.60
2023-03-06T20:15:48.209Z,7.60
2023-03-06T20:18:15.521Z,7.60
2023-03-06T20:20:42.441Z,7.60
2023-03-06T20:23:09.397Z,7.60
2023-03-06T20:25:36.689Z,7.60
2023-03-06T20:28:03.944Z,7.60
2023-03-06T20:30:38.289Z,7.60
2023-03-06T20:33:05.762Z,7.60
2023-03-06T20:35:32.756Z,7.60
2023-03-06T20:38:00.846Z,7.60
2023-03-06T20:40:27.774Z,7.60
2023-03-06T20:42:54.646Z,7.60
2023-03-06T20:45:21.586Z,7.60
2023-03-06T20:47:48.446Z,7.70
2023-03-06T20:50:15.612Z,7.70
2023-03-06T20:52:43.503Z,7.70
2023-03-06T20:55:10.492Z,7.70
2023-03-06T20:57:37.536Z,7.70
2023-03-06T21:00:05.155Z,7.70
2023-03-06T21:02:32.065Z,7.70
2023-03-06T21:05:00.969Z,7.60
2023-03-06T21:07:28.032Z,7.70
2023-03-06T21:09:55.080Z,7.60
2023-03-06T21:12:22.048Z,7.60
2023-03-06T21:14:49.033Z,7.60
2023-03-06T21:17:16.165Z,7.60
2023-03-06T21:19:43.104Z,7.60
2023-03-06T21:22:10.844Z,7.60
2023-03-06T21:24:37.740Z,7.60
2023-03-06T21:27:04.657Z,7.60
2023-03-06T21:29:31.570Z,7.50
2023-03-06T21:31:58.423Z,7.60
2023-03-06T21:34:25.589Z,7.60
2023-03-06T21:37:38.748Z,7.60
2023-03-06T21:40:08.896Z,7.60
2023-03-06T21:42:38.420Z,7.50
2023-03-06T21:45:05.692Z,7.50
2023-03-06T21:47:37.948Z,7.50
2023-03-06T21:50:06.494Z,7.50
2023-03-06T21:52:33.371Z,7.50
2023-03-06T21:55:00.450Z,7.40
2023-03-06T21:57:27.353Z,7.40
2023-03-06T21:59:54.144Z,7.40
2023-03-06T22:02:21.041Z,7.40
2023-03-06T22:04:52.687Z,7.40
2023-03-06T22:07:20.092Z,7.40
2023-03-06T22:09:46.991Z,7.30
2023-03-06T22:12:13.968Z,7.30
2023-03-06T22:14:43.081Z,7.30
2023-03-06T22:17:10.021Z,7.30
2023-03-06T22:19:36.853Z,7.30
2023-03-06T22:22:03.971Z,7.30
2023-03-06T22:24:32.195Z,7.30
2023-03-06T22:26:59.186Z,7.30
2023-03-06T22:29:26.428Z,7.40
2023-03-06T22:31:53.419Z,7.30
2023-03-06T22:34:20.337Z,7.40
2023-03-06T22:36:50.759Z,7.30
2023-03-06T22:39:17.667Z,7.30
2023-03-06T22:41:44.541Z,7.30
2023-03-06T22:44:18.877Z,7.30
2023-03-06T22:46:46.265Z,7.30
2023-03-06T22:49:13.814Z,7.30
2023-03-06T22:51:40.725Z,7.30
2023-03-06T22:54:08.036Z,7.30
2023-03-06T22:56:35.352Z,7.30
2023-03-06T22:59:02.669Z,7.20
2023-03-06T23:01:31.119Z,7.20
2023-03-06T23:03:59.416Z,7.20
2023-03-06T23:06:28.244Z,7.20
2023-03-06T23:08:56.714Z,7.20
2023-03-06T23:11:23.942Z,7.20
2023-03-06T23:13:50.766Z,7.20
2023-03-06T23:16:18.060Z,7.20
2023-03-06T23:18:45.024Z,7.10
2023-03-06T23:21:13.887Z,7.10
2023-03-06T23:23:40.848Z,7.20
2023-03-06T23:26:08.415Z,7.10
2023-03-06T23:28:35.322Z,7.00
2023-03-06T23:31:11.348Z,7.10
2023-03-06T23:33:38.984Z,7.00
2023-03-06T23:36:07.043Z,7.00
2023-03-06T23:38:34.252Z,7.10
2023-03-06T23:41:05.036Z,7.10
2023-03-06T23:43:32.050Z,7.00
2023-03-06T23:45:59.329Z,7.10
2023-03-06T23:48:27.254Z,7.00
2023-03-06T23:50:54.482Z,7.00
2023-03-06T23:53:21.861Z,7.10
2023-03-06T23:55:49.725Z,7.10
2023-03-06T23:58:17.074Z,7.10
